sensor_id;sensor_type;location;lat;lon;timestamp;P1;durP1;ratioP1;P2;durP2;ratioP2
16642;SDS011;8435;52.184;5.406;2024-02-23T00:02:16;3.97;;;1.10;;
16642;SDS011;8435;52.184;5.406;2024-02-23T00:04:47;4.07;;;1.30;;
16642;SDS011;8435;52.184;5.406;2024-02-23T00:07:13;2.60;;;1.00;;
16642;SDS011;8435;52.184;5.406;2024-02-23T00:09:40;2.07;;;0.80;;
16642;SDS011;8435;52.184;5.406;2024-02-23T00:12:07;3.40;;;1.03;;
16642;SDS011;8435;52.184;5.406;2024-02-23T00:14:34;4.50;;;1.20;;
16642;SDS011;8435;52.184;5.406;2024-02-23T00:17:02;3.63;;;0.97;;
16642;SDS011;8435;52.184;5.406;2024-02-23T00:19:29;5.10;;;1.60;;
16642;SDS011;8435;52.184;5.406;2024-02-23T00:21:58;5.60;;;1.60;;
16642;SDS011;8435;52.184;5.406;2024-02-23T00:24:25;4.27;;;1.50;;
16642;SDS011;8435;52.184;5.406;2024-02-23T00:26:51;4.47;;;1.87;;
16642;SDS011;8435;52.184;5.406;2024-02-23T00:29:18;6.43;;;1.97;;
16642;SDS011;8435;52.184;5.406;2024-02-23T00:31:46;3.63;;;1.30;;
16642;SDS011;8435;52.184;5.406;2024-02-23T00:34:15;9.53;;;1.80;;
16642;SDS011;8435;52.184;5.406;2024-02-23T00:37:08;2.93;;;1.37;;
16642;SDS011;8435;52.184;5.406;2024-02-23T00:39:35;3.70;;;1.73;;
16642;SDS011;8435;52.184;5.406;2024-02-23T00:42:02;3.63;;;1.17;;
16642;SDS011;8435;52.184;5.406;2024-02-23T00:44:29;4.23;;;1.40;;
16642;SDS011;8435;52.184;5.406;2024-02-23T00:46:56;9.07;;;1.80;;
16642;SDS011;8435;52.184;5.406;2024-02-23T00:49:26;4.37;;;1.50;;
16642;SDS011;8435;52.184;5.406;2024-02-23T00:51:58;5.53;;;1.90;;
16642;SDS011;8435;52.184;5.406;2024-02-23T00:54:26;6.23;;;1.87;;
16642;SDS011;8435;52.184;5.406;2024-02-23T00:56:53;5.87;;;1.60;;
16642;SDS011;8435;52.184;5.406;2024-02-23T00:59:19;3.73;;;1.40;;
16642;SDS011;8435;52.184;5.406;2024-02-23T01:01:46;6.33;;;1.77;;
16642;SDS011;8435;52.184;5.406;2024-02-23T01:04:13;3.67;;;1.40;;
16642;SDS011;8435;52.184;5.406;2024-02-23T01:06:40;6.33;;;2.07;;
16642;SDS011;8435;52.184;5.406;2024-02-23T01:09:07;3.57;;;1.37;;
16642;SDS011;8435;52.184;5.406;2024-02-23T01:11:36;5.93;;;1.63;;
16642;SDS011;8435;52.184;5.406;2024-02-23T01:14:02;11.77;;;2.50;;
16642;SDS011;8435;52.184;5.406;2024-02-23T01:16:30;7.57;;;1.90;;
16642;SDS011;8435;52.184;5.406;2024-02-23T01:18:58;3.77;;;1.50;;
16642;SDS011;8435;52.184;5.406;2024-02-23T01:21:24;4.87;;;1.23;;
16642;SDS011;8435;52.184;5.406;2024-02-23T01:23:51;4.37;;;1.20;;
16642;SDS011;8435;52.184;5.406;2024-02-23T01:26:18;4.73;;;1.20;;
16642;SDS011;8435;52.184;5.406;2024-02-23T01:28:46;5.40;;;1.17;;
16642;SDS011;8435;52.184;5.406;2024-02-23T01:31:22;4.10;;;1.30;;
16642;SDS011;8435;52.184;5.406;2024-02-23T01:33:51;4.43;;;1.10;;
16642;SDS011;8435;52.184;5.406;2024-02-23T01:36:18;2.97;;;1.13;;
16642;SDS011;8435;52.184;5.406;2024-02-23T01:38:45;5.83;;;1.20;;
16642;SDS011;8435;52.184;5.406;2024-02-23T01:41:11;4.30;;;1.23;;
16642;SDS011;8435;52.184;5.406;2024-02-23T01:43:38;3.57;;;1.37;;
16642;SDS011;8435;52.184;5.406;2024-02-23T01:46:06;3.57;;;0.93;;
16642;SDS011;8435;52.184;5.406;2024-02-23T01:48:34;4.73;;;1.33;;
16642;SDS011;8435;52.184;5.406;2024-02-23T01:51:01;2.60;;;0.90;;
16642;SDS011;8435;52.184;5.406;2024-02-23T01:53:28;3.20;;;1.37;;
16642;SDS011;8435;52.184;5.406;2024-02-23T01:55:55;4.90;;;1.40;;
16642;SDS011;8435;52.184;5.406;2024-02-23T01:58:24;1.97;;;1.10;;
16642;SDS011;8435;52.184;5.406;2024-02-23T02:00:51;3.97;;;1.40;;
16642;SDS011;8435;52.184;5.406;2024-02-23T02:03:19;3.80;;;1.40;;
16642;SDS011;8435;52.184;5.406;2024-02-23T02:05:46;4.10;;;1.20;;
16642;SDS011;8435;52.184;5.406;2024-02-23T02:08:14;2.67;;;0.87;;
16642;SDS011;8435;52.184;5.406;2024-02-23T02:10:42;2.03;;;1.40;;
16642;SDS011;8435;52.184;5.406;2024-02-23T02:13:10;4.47;;;1.37;;
16642;SDS011;8435;52.184;5.406;2024-02-23T02:15:37;5.60;;;1.57;;
16642;SDS011;8435;52.184;5.406;2024-02-23T02:18:04;3.03;;;1.00;;
16642;SDS011;8435;52.184;5.406;2024-02-23T02:20:33;2.33;;;1.00;;
16642;SDS011;8435;52.184;5.406;2024-02-23T02:23:01;3.00;;;1.30;;
16642;SDS011;8435;52.184;5.406;2024-02-23T02:25:28;4.17;;;1.60;;
16642;SDS011;8435;52.184;5.406;2024-02-23T02:27:55;3.63;;;1.17;;
16642;SDS011;8435;52.184;5.406;2024-02-23T02:30:22;5.03;;;2.07;;
16642;SDS011;8435;52.184;5.406;2024-02-23T02:32:49;6.77;;;1.80;;
16642;SDS011;8435;52.184;5.406;2024-02-23T02:35:15;5.17;;;1.20;;
16642;SDS011;8435;52.184;5.406;2024-02-23T02:37:44;3.07;;;1.20;;
16642;SDS011;8435;52.184;5.406;2024-02-23T02:40:11;3.77;;;1.70;;
16642;SDS011;8435;52.184;5.406;2024-02-23T02:42:38;5.03;;;1.60;;
16642;SDS011;8435;52.184;5.406;2024-02-23T02:45:04;4.53;;;1.80;;
16642;SDS011;8435;52.184;5.406;2024-02-23T02:47:32;2.77;;;1.53;;
16642;SDS011;8435;52.184;5.406;2024-02-23T02:49:58;3.67;;;1.40;;
16642;SDS011;8435;52.184;5.406;2024-02-23T02:52:25;4.43;;;1.67;;
16642;SDS011;8435;52.184;5.406;2024-02-23T02:54:54;4.27;;;1.37;;
16642;SDS011;8435;52.184;5.406;2024-02-23T02:57:21;5.13;;;1.50;;
16642;SDS011;8435;52.184;5.406;2024-02-23T02:59:48;5.10;;;1.47;;
16642;SDS011;8435;52.184;5.406;2024-02-23T03:02:16;5.00;;;1.17;;
16642;SDS011;8435;52.184;5.406;2024-02-23T03:04:46;3.90;;;1.33;;
16642;SDS011;8435;52.184;5.406;2024-02-23T03:07:13;7.60;;;1.83;;
16642;SDS011;8435;52.184;5.406;2024-02-23T03:09:40;1.93;;;1.20;;
16642;SDS011;8435;52.184;5.406;2024-02-23T03:12:08;8.40;;;1.57;;
16642;SDS011;8435;52.184;5.406;2024-02-23T03:14:36;4.83;;;2.03;;
16642;SDS011;8435;52.184;5.406;2024-02-23T03:17:04;3.33;;;1.50;;
16642;SDS011;8435;52.184;5.406;2024-02-23T03:19:31;5.33;;;2.03;;
16642;SDS011;8435;52.184;5.406;2024-02-23T03:21:58;2.03;;;1.40;;
16642;SDS011;8435;52.184;5.406;2024-02-23T03:24:24;6.57;;;2.10;;
16642;SDS011;8435;52.184;5.406;2024-02-23T03:26:51;2.87;;;1.40;;
16642;SDS011;8435;52.184;5.406;2024-02-23T03:29:19;4.10;;;1.37;;
16642;SDS011;8435;52.184;5.406;2024-02-23T03:31:47;3.00;;;1.53;;
16642;SDS011;8435;52.184;5.406;2024-02-23T03:34:13;4.43;;;1.50;;
16642;SDS011;8435;52.184;5.406;2024-02-23T03:36:40;3.77;;;1.60;;
16642;SDS011;8435;52.184;5.406;2024-02-23T03:39:07;4.93;;;1.90;;
16642;SDS011;8435;52.184;5.406;2024-02-23T03:41:34;4.23;;;2.17;;
16642;SDS011;8435;52.184;5.406;2024-02-23T03:44:01;4.67;;;1.90;;
16642;SDS011;8435;52.184;5.406;2024-02-23T03:46:29;6.13;;;2.20;;
16642;SDS011;8435;52.184;5.406;2024-02-23T03:48:55;5.93;;;2.47;;
16642;SDS011;8435;52.184;5.406;2024-02-23T03:51:22;6.57;;;1.90;;
16642;SDS011;8435;52.184;5.406;2024-02-23T03:53:49;3.87;;;1.83;;
16642;SDS011;8435;52.184;5.406;2024-02-23T03:56:16;3.70;;;2.50;;
16642;SDS011;8435;52.184;5.406;2024-02-23T03:58:43;5.33;;;2.03;;
16642;SDS011;8435;52.184;5.406;2024-02-23T04:01:10;3.67;;;1.90;;
16642;SDS011;8435;52.184;5.406;2024-02-23T04:03:38;4.60;;;1.63;;
16642;SDS011;8435;52.184;5.406;2024-02-23T04:06:05;5.40;;;1.90;;
16642;SDS011;8435;52.184;5.406;2024-02-23T04:08:32;2.97;;;1.57;;
16642;SDS011;8435;52.184;5.406;2024-02-23T04:10:59;5.77;;;1.90;;
16642;SDS011;8435;52.184;5.406;2024-02-23T04:13:26;3.10;;;1.63;;
16642;SDS011;8435;52.184;5.406;2024-02-23T04:15:52;3.23;;;1.83;;
16642;SDS011;8435;52.184;5.406;2024-02-23T04:18:19;6.30;;;1.90;;
16642;SDS011;8435;52.184;5.406;2024-02-23T04:20:47;2.20;;;1.40;;
16642;SDS011;8435;52.184;5.406;2024-02-23T04:23:14;5.70;;;1.90;;
16642;SDS011;8435;52.184;5.406;2024-02-23T04:25:41;2.80;;;1.70;;
16642;SDS011;8435;52.184;5.406;2024-02-23T04:28:08;5.50;;;2.33;;
16642;SDS011;8435;52.184;5.406;2024-02-23T04:30:34;5.87;;;2.33;;
16642;SDS011;8435;52.184;5.406;2024-02-23T04:33:01;3.10;;;1.87;;
16642;SDS011;8435;52.184;5.406;2024-02-23T04:35:28;3.70;;;2.20;;
16642;SDS011;8435;52.184;5.406;2024-02-23T04:37:56;3.90;;;1.87;;
16642;SDS011;8435;52.184;5.406;2024-02-23T04:40:23;5.60;;;1.93;;
16642;SDS011;8435;52.184;5.406;2024-02-23T04:42:49;7.67;;;2.40;;
16642;SDS011;8435;52.184;5.406;2024-02-23T04:45:16;2.67;;;1.70;;
16642;SDS011;8435;52.184;5.406;2024-02-23T04:47:43;3.97;;;1.80;;
16642;SDS011;8435;52.184;5.406;2024-02-23T04:50:11;6.43;;;2.10;;
16642;SDS011;8435;52.184;5.406;2024-02-23T04:52:38;5.67;;;1.80;;
16642;SDS011;8435;52.184;5.406;2024-02-23T04:55:07;4.80;;;2.00;;
16642;SDS011;8435;52.184;5.406;2024-02-23T04:57:36;4.33;;;1.63;;
16642;SDS011;8435;52.184;5.406;2024-02-23T05:00:03;5.10;;;2.20;;
16642;SDS011;8435;52.184;5.406;2024-02-23T05:02:32;8.83;;;2.00;;
16642;SDS011;8435;52.184;5.406;2024-02-23T05:05:00;4.53;;;1.80;;
16642;SDS011;8435;52.184;5.406;2024-02-23T05:07:29;5.23;;;2.07;;
16642;SDS011;8435;52.184;5.406;2024-02-23T05:09:56;5.23;;;2.40;;
16642;SDS011;8435;52.184;5.406;2024-02-23T05:12:24;3.97;;;1.53;;
16642;SDS011;8435;52.184;5.406;2024-02-23T05:14:51;4.23;;;1.60;;
16642;SDS011;8435;52.184;5.406;2024-02-23T05:17:18;2.90;;;1.53;;
16642;SDS011;8435;52.184;5.406;2024-02-23T05:19:45;3.57;;;1.63;;
16642;SDS011;8435;52.184;5.406;2024-02-23T05:22:12;3.63;;;1.73;;
16642;SDS011;8435;52.184;5.406;2024-02-23T05:24:39;6.23;;;2.03;;
16642;SDS011;8435;52.184;5.406;2024-02-23T05:27:06;4.50;;;1.93;;
16642;SDS011;8435;52.184;5.406;2024-02-23T05:29:34;3.23;;;1.63;;
16642;SDS011;8435;52.184;5.406;2024-02-23T05:32:00;4.50;;;1.93;;
16642;SDS011;8435;52.184;5.406;2024-02-23T05:34:28;3.33;;;1.87;;
16642;SDS011;8435;52.184;5.406;2024-02-23T05:36:55;4.87;;;2.10;;
16642;SDS011;8435;52.184;5.406;2024-02-23T05:39:22;3.83;;;1.97;;
16642;SDS011;8435;52.184;5.406;2024-02-23T05:41:48;4.00;;;2.17;;
16642;SDS011;8435;52.184;5.406;2024-02-23T05:44:15;3.57;;;2.17;;
16642;SDS011;8435;52.184;5.406;2024-02-23T05:46:43;4.60;;;2.10;;
16642;SDS011;8435;52.184;5.406;2024-02-23T05:49:10;3.43;;;1.80;;
16642;SDS011;8435;52.184;5.406;2024-02-23T05:51:38;5.27;;;2.17;;
16642;SDS011;8435;52.184;5.406;2024-02-23T05:54:05;5.00;;;2.30;;
16642;SDS011;8435;52.184;5.406;2024-02-23T05:56:31;5.40;;;1.93;;
16642;SDS011;8435;52.184;5.406;2024-02-23T05:58:58;4.77;;;2.40;;
16642;SDS011;8435;52.184;5.406;2024-02-23T06:01:25;3.97;;;2.30;;
16642;SDS011;8435;52.184;5.406;2024-02-23T06:03:53;5.63;;;2.57;;
16642;SDS011;8435;52.184;5.406;2024-02-23T06:06:20;5.67;;;2.57;;
16642;SDS011;8435;52.184;5.406;2024-02-23T06:08:47;4.10;;;2.30;;
16642;SDS011;8435;52.184;5.406;2024-02-23T06:11:16;2.57;;;2.00;;
16642;SDS011;8435;52.184;5.406;2024-02-23T06:13:42;3.30;;;2.10;;
16642;SDS011;8435;52.184;5.406;2024-02-23T06:16:09;4.97;;;2.30;;
16642;SDS011;8435;52.184;5.406;2024-02-23T06:18:38;2.97;;;2.27;;
16642;SDS011;8435;52.184;5.406;2024-02-23T06:21:12;6.17;;;2.70;;
16642;SDS011;8435;52.184;5.406;2024-02-23T06:23:39;3.13;;;2.37;;
16642;SDS011;8435;52.184;5.406;2024-02-23T06:26:06;3.80;;;2.10;;
16642;SDS011;8435;52.184;5.406;2024-02-23T06:28:33;4.27;;;2.40;;
16642;SDS011;8435;52.184;5.406;2024-02-23T06:31:02;4.40;;;2.37;;
16642;SDS011;8435;52.184;5.406;2024-02-23T06:33:29;4.10;;;1.87;;
16642;SDS011;8435;52.184;5.406;2024-02-23T06:35:56;3.87;;;1.90;;
16642;SDS011;8435;52.184;5.406;2024-02-23T06:38:25;6.10;;;2.10;;
16642;SDS011;8435;52.184;5.406;2024-02-23T06:40:51;4.43;;;1.80;;
16642;SDS011;8435;52.184;5.406;2024-02-23T06:43:20;3.00;;;1.90;;
16642;SDS011;8435;52.184;5.406;2024-02-23T06:45:46;3.70;;;2.07;;
16642;SDS011;8435;52.184;5.406;2024-02-23T06:48:13;3.77;;;2.67;;
16642;SDS011;8435;52.184;5.406;2024-02-23T06:50:40;4.00;;;1.80;;
16642;SDS011;8435;52.184;5.406;2024-02-23T06:53:07;4.90;;;1.90;;
16642;SDS011;8435;52.184;5.406;2024-02-23T06:55:35;3.20;;;1.60;;
16642;SDS011;8435;52.184;5.406;2024-02-23T06:58:02;4.90;;;2.00;;
16642;SDS011;8435;52.184;5.406;2024-02-23T07:00:29;4.93;;;1.87;;
16642;SDS011;8435;52.184;5.406;2024-02-23T07:02:56;3.47;;;1.67;;
16642;SDS011;8435;52.184;5.406;2024-02-23T07:05:24;5.57;;;2.13;;
16642;SDS011;8435;52.184;5.406;2024-02-23T07:07:50;3.33;;;1.73;;
16642;SDS011;8435;52.184;5.406;2024-02-23T07:10:17;2.80;;;1.73;;
16642;SDS011;8435;52.184;5.406;2024-02-23T07:12:46;2.53;;;1.53;;
16642;SDS011;8435;52.184;5.406;2024-02-23T07:15:13;3.10;;;2.00;;
16642;SDS011;8435;52.184;5.406;2024-02-23T07:17:40;3.47;;;1.43;;
16642;SDS011;8435;52.184;5.406;2024-02-23T07:20:07;3.57;;;1.93;;
16642;SDS011;8435;52.184;5.406;2024-02-23T07:22:35;3.73;;;1.77;;
16642;SDS011;8435;52.184;5.406;2024-02-23T07:25:02;1.73;;;1.30;;
16642;SDS011;8435;52.184;5.406;2024-02-23T07:27:29;4.93;;;1.60;;
16642;SDS011;8435;52.184;5.406;2024-02-23T07:29:57;4.60;;;1.77;;
16642;SDS011;8435;52.184;5.406;2024-02-23T07:32:24;3.20;;;1.57;;
16642;SDS011;8435;52.184;5.406;2024-02-23T07:34:52;2.00;;;1.30;;
16642;SDS011;8435;52.184;5.406;2024-02-23T07:37:18;3.00;;;1.40;;
16642;SDS011;8435;52.184;5.406;2024-02-23T07:39:45;4.20;;;1.40;;
16642;SDS011;8435;52.184;5.406;2024-02-23T07:42:12;4.40;;;1.40;;
16642;SDS011;8435;52.184;5.406;2024-02-23T07:44:43;2.07;;;1.27;;
16642;SDS011;8435;52.184;5.406;2024-02-23T07:47:12;2.70;;;1.20;;
16642;SDS011;8435;52.184;5.406;2024-02-23T07:49:39;3.73;;;1.53;;
16642;SDS011;8435;52.184;5.406;2024-02-23T07:52:06;4.37;;;1.47;;
16642;SDS011;8435;52.184;5.406;2024-02-23T07:54:33;4.23;;;1.60;;
16642;SDS011;8435;52.184;5.406;2024-02-23T07:57:00;3.33;;;1.57;;
16642;SDS011;8435;52.184;5.406;2024-02-23T07:59:29;3.83;;;1.70;;
16642;SDS011;8435;52.184;5.406;2024-02-23T08:01:56;5.37;;;2.00;;
16642;SDS011;8435;52.184;5.406;2024-02-23T08:04:24;3.10;;;1.63;;
16642;SDS011;8435;52.184;5.406;2024-02-23T08:06:51;3.40;;;1.30;;
16642;SDS011;8435;52.184;5.406;2024-02-23T08:09:18;4.77;;;1.77;;
16642;SDS011;8435;52.184;5.406;2024-02-23T08:11:47;5.23;;;1.87;;
16642;SDS011;8435;52.184;5.406;2024-02-23T08:14:14;5.10;;;2.17;;
16642;SDS011;8435;52.184;5.406;2024-02-23T08:16:41;4.90;;;1.83;;
16642;SDS011;8435;52.184;5.406;2024-02-23T08:19:08;3.83;;;2.13;;
16642;SDS011;8435;52.184;5.406;2024-02-23T08:21:36;3.00;;;1.80;;
16642;SDS011;8435;52.184;5.406;2024-02-23T08:24:03;3.73;;;1.73;;
16642;SDS011;8435;52.184;5.406;2024-02-23T08:26:29;3.00;;;1.67;;
16642;SDS011;8435;52.184;5.406;2024-02-23T08:28:55;3.50;;;1.50;;
16642;SDS011;8435;52.184;5.406;2024-02-23T08:31:22;4.67;;;1.73;;
16642;SDS011;8435;52.184;5.406;2024-02-23T08:33:49;7.17;;;2.13;;
16642;SDS011;8435;52.184;5.406;2024-02-23T08:36:16;3.53;;;1.57;;
16642;SDS011;8435;52.184;5.406;2024-02-23T08:38:44;4.00;;;1.57;;
16642;SDS011;8435;52.184;5.406;2024-02-23T08:41:11;4.97;;;1.60;;
16642;SDS011;8435;52.184;5.406;2024-02-23T08:43:38;2.43;;;1.40;;
16642;SDS011;8435;52.184;5.406;2024-02-23T08:46:04;3.43;;;1.60;;
16642;SDS011;8435;52.184;5.406;2024-02-23T08:48:32;2.70;;;1.70;;
16642;SDS011;8435;52.184;5.406;2024-02-23T08:50:58;5.73;;;1.77;;
16642;SDS011;8435;52.184;5.406;2024-02-23T08:53:25;3.47;;;1.70;;
16642;SDS011;8435;52.184;5.406;2024-02-23T08:55:53;5.27;;;1.93;;
16642;SDS011;8435;52.184;5.406;2024-02-23T08:58:20;2.67;;;1.67;;
16642;SDS011;8435;52.184;5.406;2024-02-23T09:00:47;4.83;;;1.50;;
16642;SDS011;8435;52.184;5.406;2024-02-23T09:03:14;3.13;;;1.40;;
16642;SDS011;8435;52.184;5.406;2024-02-23T09:05:40;4.93;;;1.53;;
16642;SDS011;8435;52.184;5.406;2024-02-23T09:08:07;4.07;;;1.60;;
16642;SDS011;8435;52.184;5.406;2024-02-23T09:10:34;4.37;;;1.70;;
16642;SDS011;8435;52.184;5.406;2024-02-23T09:13:02;2.80;;;1.40;;
16642;SDS011;8435;52.184;5.406;2024-02-23T09:15:29;4.77;;;1.50;;
16642;SDS011;8435;52.184;5.406;2024-02-23T09:17:57;4.43;;;1.63;;
16642;SDS011;8435;52.184;5.406;2024-02-23T09:20:24;4.73;;;1.80;;
16642;SDS011;8435;52.184;5.406;2024-02-23T09:22:51;6.03;;;1.43;;
16642;SDS011;8435;52.184;5.406;2024-02-23T09:25:18;3.60;;;1.37;;
16642;SDS011;8435;52.184;5.406;2024-02-23T09:27:44;5.20;;;1.60;;
16642;SDS011;8435;52.184;5.406;2024-02-23T09:30:13;2.77;;;1.67;;
16642;SDS011;8435;52.184;5.406;2024-02-23T09:32:41;3.23;;;1.47;;
16642;SDS011;8435;52.184;5.406;2024-02-23T09:35:10;4.37;;;1.30;;
16642;SDS011;8435;52.184;5.406;2024-02-23T09:37:37;5.03;;;1.60;;
16642;SDS011;8435;52.184;5.406;2024-02-23T09:40:04;5.10;;;1.37;;
16642;SDS011;8435;52.184;5.406;2024-02-23T09:42:35;3.57;;;1.47;;
16642;SDS011;8435;52.184;5.406;2024-02-23T09:45:05;5.47;;;1.53;;
16642;SDS011;8435;52.184;5.406;2024-02-23T09:47:35;4.67;;;1.17;;
16642;SDS011;8435;52.184;5.406;2024-02-23T09:50:03;3.10;;;1.47;;
16642;SDS011;8435;52.184;5.406;2024-02-23T09:52:30;2.47;;;1.20;;
16642;SDS011;8435;52.184;5.406;2024-02-23T09:54:58;3.53;;;1.20;;
16642;SDS011;8435;52.184;5.406;2024-02-23T09:57:25;6.37;;;1.60;;
16642;SDS011;8435;52.184;5.406;2024-02-23T09:59:53;5.23;;;1.40;;
16642;SDS011;8435;52.184;5.406;2024-02-23T10:02:25;2.07;;;1.13;;
16642;SDS011;8435;52.184;5.406;2024-02-23T10:04:53;5.23;;;1.20;;
16642;SDS011;8435;52.184;5.406;2024-02-23T10:07:22;3.60;;;1.40;;
16642;SDS011;8435;52.184;5.406;2024-02-23T10:09:50;4.57;;;1.43;;
16642;SDS011;8435;52.184;5.406;2024-02-23T10:12:16;2.83;;;1.10;;
16642;SDS011;8435;52.184;5.406;2024-02-23T10:14:43;2.17;;;1.10;;
16642;SDS011;8435;52.184;5.406;2024-02-23T10:17:10;2.77;;;1.57;;
16642;SDS011;8435;52.184;5.406;2024-02-23T10:19:37;3.70;;;1.27;;
16642;SDS011;8435;52.184;5.406;2024-02-23T10:22:05;2.73;;;1.20;;
16642;SDS011;8435;52.184;5.406;2024-02-23T10:24:33;1.87;;;1.03;;
16642;SDS011;8435;52.184;5.406;2024-02-23T10:27:00;2.50;;;1.20;;
16642;SDS011;8435;52.184;5.406;2024-02-23T10:29:27;1.50;;;1.00;;
16642;SDS011;8435;52.184;5.406;2024-02-23T10:31:54;2.63;;;1.23;;
16642;SDS011;8435;52.184;5.406;2024-02-23T10:34:25;2.53;;;1.20;;
16642;SDS011;8435;52.184;5.406;2024-02-23T10:36:58;2.60;;;1.10;;
16642;SDS011;8435;52.184;5.406;2024-02-23T10:39:27;3.23;;;1.50;;
16642;SDS011;8435;52.184;5.406;2024-02-23T10:41:57;7.57;;;3.73;;
16642;SDS011;8435;52.184;5.406;2024-02-23T10:44:26;5.53;;;1.90;;
16642;SDS011;8435;52.184;5.406;2024-02-23T10:46:54;4.50;;;2.03;;
16642;SDS011;8435;52.184;5.406;2024-02-23T10:49:23;4.53;;;2.00;;
16642;SDS011;8435;52.184;5.406;2024-02-23T10:51:51;4.20;;;1.50;;
16642;SDS011;8435;52.184;5.406;2024-02-23T10:54:18;2.73;;;1.30;;
16642;SDS011;8435;52.184;5.406;2024-02-23T10:56:49;3.17;;;1.30;;
16642;SDS011;8435;52.184;5.406;2024-02-23T10:59:16;2.50;;;1.30;;
16642;SDS011;8435;52.184;5.406;2024-02-23T11:01:44;2.70;;;1.40;;
16642;SDS011;8435;52.184;5.406;2024-02-23T11:04:16;3.43;;;1.90;;
16642;SDS011;8435;52.184;5.406;2024-02-23T11:06:48;3.53;;;1.60;;
16642;SDS011;8435;52.184;5.406;2024-02-23T11:09:20;2.57;;;1.37;;
16642;SDS011;8435;52.184;5.406;2024-02-23T11:11:53;3.10;;;1.40;;
16642;SDS011;8435;52.184;5.406;2024-02-23T11:14:30;1.90;;;1.33;;
16642;SDS011;8435;52.184;5.406;2024-02-23T11:16:58;2.30;;;1.37;;
16642;SDS011;8435;52.184;5.406;2024-02-23T11:19:31;3.37;;;1.60;;
16642;SDS011;8435;52.184;5.406;2024-02-23T11:21:59;5.40;;;1.80;;
16642;SDS011;8435;52.184;5.406;2024-02-23T11:24:28;2.73;;;1.63;;
16642;SDS011;8435;52.184;5.406;2024-02-23T11:26:57;2.97;;;1.57;;
16642;SDS011;8435;52.184;5.406;2024-02-23T11:29:26;2.57;;;1.40;;
16642;SDS011;8435;52.184;5.406;2024-02-23T11:31:54;3.00;;;1.70;;
16642;SDS011;8435;52.184;5.406;2024-02-23T11:34:26;2.90;;;1.83;;
16642;SDS011;8435;52.184;5.406;2024-02-23T11:36:53;4.17;;;1.60;;
16642;SDS011;8435;52.184;5.406;2024-02-23T11:39:21;4.80;;;2.50;;
16642;SDS011;8435;52.184;5.406;2024-02-23T11:41:48;3.77;;;2.40;;
16642;SDS011;8435;52.184;5.406;2024-02-23T11:44:17;3.70;;;2.30;;
16642;SDS011;8435;52.184;5.406;2024-02-23T11:46:44;3.23;;;2.00;;
16642;SDS011;8435;52.184;5.406;2024-02-23T11:49:11;2.73;;;1.73;;
16642;SDS011;8435;52.184;5.406;2024-02-23T11:51:38;2.37;;;1.90;;
16642;SDS011;8435;52.184;5.406;2024-02-23T11:54:14;2.57;;;1.53;;
16642;SDS011;8435;52.184;5.406;2024-02-23T11:56:41;3.37;;;2.00;;
16642;SDS011;8435;52.184;5.406;2024-02-23T11:59:08;2.27;;;1.50;;
16642;SDS011;8435;52.184;5.406;2024-02-23T12:01:37;2.50;;;1.60;;
16642;SDS011;8435;52.184;5.406;2024-02-23T12:04:04;2.10;;;1.43;;
16642;SDS011;8435;52.184;5.406;2024-02-23T12:06:31;3.00;;;1.43;;
16642;SDS011;8435;52.184;5.406;2024-02-23T12:08:58;4.37;;;1.87;;
16642;SDS011;8435;52.184;5.406;2024-02-23T12:11:25;2.53;;;1.50;;
16642;SDS011;8435;52.184;5.406;2024-02-23T12:13:52;4.53;;;1.60;;
16642;SDS011;8435;52.184;5.406;2024-02-23T12:16:22;2.47;;;1.60;;
16642;SDS011;8435;52.184;5.406;2024-02-23T12:18:53;2.73;;;1.50;;
16642;SDS011;8435;52.184;5.406;2024-02-23T12:21:23;3.97;;;1.53;;
16642;SDS011;8435;52.184;5.406;2024-02-23T12:23:50;2.23;;;1.20;;
16642;SDS011;8435;52.184;5.406;2024-02-23T12:26:17;2.80;;;1.40;;
16642;SDS011;8435;52.184;5.406;2024-02-23T12:28:44;3.47;;;1.50;;
16642;SDS011;8435;52.184;5.406;2024-02-23T12:31:12;2.87;;;1.73;;
16642;SDS011;8435;52.184;5.406;2024-02-23T12:33:39;2.37;;;1.50;;
16642;SDS011;8435;52.184;5.406;2024-02-23T12:36:08;3.40;;;1.40;;
16642;SDS011;8435;52.184;5.406;2024-02-23T12:38:36;3.80;;;1.50;;
16642;SDS011;8435;52.184;5.406;2024-02-23T12:41:04;4.27;;;1.40;;
16642;SDS011;8435;52.184;5.406;2024-02-23T12:43:30;2.57;;;1.20;;
16642;SDS011;8435;52.184;5.406;2024-02-23T12:45:57;4.03;;;1.43;;
16642;SDS011;8435;52.184;5.406;2024-02-23T12:48:26;1.50;;;1.20;;
16642;SDS011;8435;52.184;5.406;2024-02-23T12:50:53;3.43;;;1.43;;
16642;SDS011;8435;52.184;5.406;2024-02-23T12:56:10;2.77;;;1.50;;
16642;SDS011;8435;52.184;5.406;2024-02-23T12:58:38;4.57;;;1.67;;
16642;SDS011;8435;52.184;5.406;2024-02-23T13:01:06;2.50;;;1.30;;
16642;SDS011;8435;52.184;5.406;2024-02-23T13:03:33;3.03;;;1.33;;
16642;SDS011;8435;52.184;5.406;2024-02-23T13:06:01;1.50;;;1.33;;
16642;SDS011;8435;52.184;5.406;2024-02-23T13:08:28;2.57;;;1.30;;
16642;SDS011;8435;52.184;5.406;2024-02-23T13:10:56;3.20;;;1.03;;
16642;SDS011;8435;52.184;5.406;2024-02-23T13:13:23;3.67;;;1.60;;
16642;SDS011;8435;52.184;5.406;2024-02-23T13:15:51;2.00;;;1.10;;
16642;SDS011;8435;52.184;5.406;2024-02-23T13:18:18;2.83;;;1.37;;
16642;SDS011;8435;52.184;5.406;2024-02-23T13:20:45;5.27;;;1.17;;
16642;SDS011;8435;52.184;5.406;2024-02-23T13:23:12;4.97;;;1.20;;
16642;SDS011;8435;52.184;5.406;2024-02-23T13:25:40;2.80;;;1.30;;
16642;SDS011;8435;52.184;5.406;2024-02-23T13:28:09;2.10;;;1.43;;
16642;SDS011;8435;52.184;5.406;2024-02-23T13:30:36;3.97;;;1.10;;
16642;SDS011;8435;52.184;5.406;2024-02-23T13:33:03;2.40;;;1.20;;
16642;SDS011;8435;52.184;5.406;2024-02-23T13:35:31;3.30;;;1.47;;
16642;SDS011;8435;52.184;5.406;2024-02-23T13:37:58;2.43;;;1.10;;
16642;SDS011;8435;52.184;5.406;2024-02-23T13:40:28;2.87;;;1.43;;
16642;SDS011;8435;52.184;5.406;2024-02-23T13:42:55;2.20;;;0.97;;
16642;SDS011;8435;52.184;5.406;2024-02-23T13:45:23;2.47;;;1.20;;
16642;SDS011;8435;52.184;5.406;2024-02-23T13:47:57;3.20;;;1.30;;
16642;SDS011;8435;52.184;5.406;2024-02-23T13:50:24;4.70;;;1.53;;
16642;SDS011;8435;52.184;5.406;2024-02-23T13:52:51;1.40;;;1.07;;
16642;SDS011;8435;52.184;5.406;2024-02-23T13:55:18;1.93;;;1.40;;
16642;SDS011;8435;52.184;5.406;2024-02-23T13:57:46;2.93;;;1.40;;
16642;SDS011;8435;52.184;5.406;2024-02-23T14:00:13;2.17;;;1.30;;
16642;SDS011;8435;52.184;5.406;2024-02-23T14:02:42;1.80;;;1.07;;
16642;SDS011;8435;52.184;5.406;2024-02-23T14:05:09;1.60;;;1.00;;
16642;SDS011;8435;52.184;5.406;2024-02-23T14:07:36;3.97;;;1.80;;
16642;SDS011;8435;52.184;5.406;2024-02-23T14:10:03;3.00;;;1.20;;
16642;SDS011;8435;52.184;5.406;2024-02-23T14:12:31;2.10;;;1.27;;
16642;SDS011;8435;52.184;5.406;2024-02-23T14:14:58;3.30;;;1.57;;
16642;SDS011;8435;52.184;5.406;2024-02-23T14:17:25;4.23;;;1.60;;
16642;SDS011;8435;52.184;5.406;2024-02-23T14:19:53;1.23;;;1.03;;
16642;SDS011;8435;52.184;5.406;2024-02-23T14:22:20;3.10;;;1.17;;
16642;SDS011;8435;52.184;5.406;2024-02-23T14:24:46;1.93;;;1.10;;
16642;SDS011;8435;52.184;5.406;2024-02-23T14:27:13;2.73;;;1.10;;
16642;SDS011;8435;52.184;5.406;2024-02-23T14:29:40;2.47;;;1.30;;
16642;SDS011;8435;52.184;5.406;2024-02-23T14:32:07;1.70;;;1.40;;
16642;SDS011;8435;52.184;5.406;2024-02-23T14:34:34;2.20;;;1.20;;
16642;SDS011;8435;52.184;5.406;2024-02-23T14:37:02;3.33;;;1.40;;
16642;SDS011;8435;52.184;5.406;2024-02-23T14:39:29;1.47;;;1.00;;
16642;SDS011;8435;52.184;5.406;2024-02-23T14:41:56;1.53;;;1.20;;
16642;SDS011;8435;52.184;5.406;2024-02-23T14:44:22;2.30;;;1.57;;
16642;SDS011;8435;52.184;5.406;2024-02-23T14:46:49;1.83;;;0.93;;
16642;SDS011;8435;52.184;5.406;2024-02-23T14:49:16;1.27;;;0.80;;
16642;SDS011;8435;52.184;5.406;2024-02-23T14:51:43;1.30;;;0.70;;
16642;SDS011;8435;52.184;5.406;2024-02-23T14:54:13;1.30;;;0.77;;
16642;SDS011;8435;52.184;5.406;2024-02-23T14:56:40;0.97;;;0.70;;
16642;SDS011;8435;52.184;5.406;2024-02-23T14:59:07;0.73;;;0.73;;
16642;SDS011;8435;52.184;5.406;2024-02-23T15:01:35;1.70;;;0.87;;
16642;SDS011;8435;52.184;5.406;2024-02-23T15:04:03;1.17;;;0.73;;
16642;SDS011;8435;52.184;5.406;2024-02-23T15:06:30;0.73;;;0.60;;